Time;durP1;ratioP1;P1;durP2;ratioP2;P2;SDS_P1;SDS_P2;PMS_P1;PMS_P2;Temp;Humidity;BMP_temperature;BMP_pressure;BME280_temperature;BME280_humidity;BME280_pressure;Samples;Min_cycle;Max_cycle;Signal;HPM_P1;HPM_P2
2022/05/12 00:00:25;;;;;;;9.52;7.97;;;;;;;;;;5029088;28;20022;-77
2022/05/12 00:02:51;;;;;;;19.17;16.48;;;;;;;;;;5013861;28;20110;-77
2022/05/12 00:05:18;;;;;;;16.77;13.38;;;;;;;;;;5028751;28;20029;-77
2022/05/12 00:07:44;;;;;;;19.13;10.82;;;;;;;;;;5013715;28;20108;-78
2022/05/12 00:10:11;;;;;;;9.20;7.18;;;;;;;;;;5014042;28;20123;-78
2022/05/12 00:12:37;;;;;;;10.05;6.47;;;;;;;;;;5028516;28;20076;-78
2022/05/12 00:15:05;;;;;;;9.93;7.18;;;;;;;;;;5028827;28;20022;-78
2022/05/12 00:17:31;;;;;;;20.10;7.93;;;;;;;;;;5028711;28;20018;-77
2022/05/12 00:19:57;;;;;;;14.85;7.40;;;;;;;;;;5013428;28;20022;-77
2022/05/12 00:22:23;;;;;;;9.65;7.18;;;;;;;;;;5013230;28;20030;-78
2022/05/12 00:24:49;;;;;;;12.82;7.30;;;;;;;;;;5028619;28;20022;-79
2022/05/12 00:27:15;;;;;;;11.35;7.43;;;;;;;;;;5028497;28;20124;-78
2022/05/12 00:29:41;;;;;;;9.35;7.55;;;;;;;;;;5013661;28;20022;-78
2022/05/12 00:32:07;;;;;;;9.15;7.32;;;;;;;;;;5013679;28;20082;-78
2022/05/12 00:34:33;;;;;;;10.65;7.88;;;;;;;;;;5028575;28;20022;-78
2022/05/12 00:36:59;;;;;;;11.13;7.35;;;;;;;;;;5028473;28;20041;-78
2022/05/12 00:39:25;;;;;;;12.57;8.07;;;;;;;;;;5013042;28;20475;-77
2022/05/12 00:41:51;;;;;;;10.52;6.60;;;;;;;;;;5013284;28;20465;-78
2022/05/12 00:44:17;;;;;;;7.47;6.28;;;;;;;;;;5013449;28;20477;-78
2022/05/12 00:46:44;;;;;;;8.43;6.47;;;;;;;;;;5013095;28;20030;-78
2022/05/12 00:49:18;;;;;;;10.18;6.47;;;;;;;;;;5028296;28;20029;-79
2022/05/12 00:51:48;;;;;;;7.88;6.25;;;;;;;;;;5028263;28;20024;-78
2022/05/12 00:54:27;;;;;;;8.40;7.03;;;;;;;;;;5027733;28;20121;-78
2022/05/12 00:56:53;;;;;;;8.93;6.18;;;;;;;;;;5011661;28;20469;-78
2022/05/12 00:59:30;;;;;;;11.57;8.73;;;;;;;;;;5011570;28;20384;-77
2022/05/12 01:01:57;;;;;;;9.70;7.20;;;;;;;;;;5011456;28;21214;-78
2022/05/12 01:04:24;;;;;;;9.05;7.28;;;;;;;;;;5012464;28;20022;-78
2022/05/12 01:06:52;;;;;;;13.90;8.50;;;;;;;;;;5012576;28;20056;-78
2022/05/12 01:09:20;;;;;;;11.80;7.60;;;;;;;;;;5012714;28;20046;-78
2022/05/12 01:11:48;;;;;;;9.00;7.45;;;;;;;;;;5012220;28;20133;-78
2022/05/12 01:14:14;;;;;;;9.85;8.32;;;;;;;;;;5012028;28;20029;-78
2022/05/12 01:16:42;;;;;;;10.75;6.70;;;;;;;;;;5011410;28;20086;-78
2022/05/12 01:19:11;;;;;;;8.27;6.20;;;;;;;;;;5011352;28;20026;-79
2022/05/12 01:21:37;;;;;;;11.50;7.32;;;;;;;;;;5012780;28;20025;-78
2022/05/12 01:24:03;;;;;;;7.65;6.72;;;;;;;;;;5011189;28;20021;-79
2022/05/12 01:26:29;;;;;;;10.88;7.68;;;;;;;;;;5012205;28;20119;-79
2022/05/12 01:28:55;;;;;;;11.23;6.30;;;;;;;;;;5011201;28;20068;-80
2022/05/12 01:31:22;;;;;;;10.00;7.47;;;;;;;;;;5010776;28;20108;-80
2022/05/12 01:33:51;;;;;;;8.55;7.30;;;;;;;;;;5011039;28;20026;-79
2022/05/12 01:36:17;;;;;;;9.30;7.22;;;;;;;;;;5012421;28;20025;-79
2022/05/12 01:38:43;;;;;;;11.48;7.72;;;;;;;;;;5012019;28;20018;-79
2022/05/12 01:41:09;;;;;;;8.77;6.97;;;;;;;;;;5012576;28;20026;-78
2022/05/12 01:43:35;;;;;;;9.70;7.28;;;;;;;;;;5012496;28;20930;-79
2022/05/12 01:46:01;;;;;;;13.88;8.73;;;;;;;;;;5011037;28;20030;-78
2022/05/12 01:48:28;;;;;;;11.25;8.27;;;;;;;;;;5012140;28;20030;-79
2022/05/12 01:50:54;;;;;;;8.55;7.28;;;;;;;;;;5011877;28;20401;-79
2022/05/12 01:53:21;;;;;;;8.93;7.22;;;;;;;;;;5011917;28;20389;-78
2022/05/12 01:55:49;;;;;;;11.75;7.18;;;;;;;;;;5010886;28;20022;-78
2022/05/12 01:58:17;;;;;;;9.73;7.82;;;;;;;;;;5010820;28;20060;-77
2022/05/12 02:00:43;;;;;;;9.63;8.05;;;;;;;;;;5012321;28;20136;-78
2022/05/12 02:03:09;;;;;;;14.38;7.90;;;;;;;;;;5010787;28;20026;-78
2022/05/12 02:05:37;;;;;;;10.75;8.23;;;;;;;;;;5011855;28;20442;-77
2022/05/12 02:08:04;;;;;;;10.57;7.97;;;;;;;;;;5011965;28;20052;-78
2022/05/12 02:10:31;;;;;;;11.93;7.85;;;;;;;;;;5011999;28;20033;-78
2022/05/12 02:12:57;;;;;;;15.95;9.98;;;;;;;;;;5011691;28;20018;-78
2022/05/12 02:15:24;;;;;;;14.38;9.30;;;;;;;;;;5011949;28;20488;-77
2022/05/12 02:17:51;;;;;;;14.23;9.98;;;;;;;;;;5014159;28;20018;-77
2022/05/12 02:20:18;;;;;;;16.00;10.95;;;;;;;;;;5015881;28;20018;-78
2022/05/12 02:22:44;;;;;;;15.73;11.98;;;;;;;;;;5016339;28;20377;-77
2022/05/12 02:25:11;;;;;;;16.67;10.65;;;;;;;;;;5015800;28;20026;-78
2022/05/12 02:27:42;;;;;;;18.75;11.15;;;;;;;;;;5015682;28;20034;-78
2022/05/12 02:30:08;;;;;;;18.40;11.32;;;;;;;;;;5015754;28;20017;-78
2022/05/12 02:32:35;;;;;;;16.02;9.63;;;;;;;;;;5015615;28;20049;-77
2022/05/12 02:35:01;;;;;;;18.42;10.20;;;;;;;;;;5014335;28;20022;-77
2022/05/12 02:37:27;;;;;;;14.60;9.18;;;;;;;;;;5015552;28;20022;-77
2022/05/12 02:39:55;;;;;;;19.33;10.57;;;;;;;;;;5014244;28;20025;-78
2022/05/12 02:42:22;;;;;;;16.10;10.95;;;;;;;;;;5014087;28;20026;-78
2022/05/12 02:44:48;;;;;;;23.85;11.32;;;;;;;;;;5015658;28;20067;-78
2022/05/12 02:47:14;;;;;;;20.80;11.95;;;;;;;;;;5014894;28;20034;-77
2022/05/12 02:49:41;;;;;;;13.52;9.80;;;;;;;;;;5015225;28;20018;-79
2022/05/12 02:52:09;;;;;;;13.98;10.20;;;;;;;;;;5015189;28;20054;-78
2022/05/12 02:54:36;;;;;;;18.50;11.80;;;;;;;;;;5015204;28;20022;-78
2022/05/12 02:57:02;;;;;;;17.73;11.65;;;;;;;;;;5013982;28;20385;-79
2022/05/12 02:59:29;;;;;;;13.60;10.30;;;;;;;;;;5015382;28;20022;-78
2022/05/12 03:01:55;;;;;;;14.90;11.05;;;;;;;;;;5013703;28;20099;-79
2022/05/12 03:04:21;;;;;;;20.38;13.25;;;;;;;;;;5013751;28;20022;-77
2022/05/12 03:06:47;;;;;;;18.27;12.15;;;;;;;;;;5014859;28;20053;-78
2022/05/12 03:09:13;;;;;;;17.02;13.20;;;;;;;;;;5014899;28;20029;-77
2022/05/12 03:11:40;;;;;;;28.77;13.82;;;;;;;;;;5015145;28;20026;-78
2022/05/12 03:14:06;;;;;;;24.05;12.48;;;;;;;;;;5014920;28;20053;-78
2022/05/12 03:16:32;;;;;;;18.52;12.00;;;;;;;;;;5014604;28;20028;-77
2022/05/12 03:18:58;;;;;;;17.33;11.60;;;;;;;;;;5014658;28;20033;-78
2022/05/12 03:21:26;;;;;;;17.35;13.02;;;;;;;;;;5014609;28;20068;-77
2022/05/12 03:23:52;;;;;;;14.10;10.43;;;;;;;;;;5013280;28;20500;-77
2022/05/12 03:26:19;;;;;;;17.23;12.10;;;;;;;;;;5013153;28;20121;-81
2022/05/12 03:28:45;;;;;;;13.80;10.18;;;;;;;;;;5014131;28;20026;-78
2022/05/12 03:31:11;;;;;;;16.60;11.05;;;;;;;;;;5014317;28;20033;-80
2022/05/12 03:33:37;;;;;;;11.68;9.75;;;;;;;;;;5013331;28;20393;-79
2022/05/12 03:36:04;;;;;;;18.35;10.10;;;;;;;;;;5014062;28;20097;-80
2022/05/12 03:38:30;;;;;;;11.60;9.10;;;;;;;;;;5012956;28;20446;-79
2022/05/12 03:40:56;;;;;;;12.35;7.93;;;;;;;;;;5012984;28;20098;-80
2022/05/12 03:46:07;;;;;;;14.85;9.82;;;;;;;;;;5014161;28;20092;-78
2022/05/12 03:48:38;;;;;;;11.95;6.95;;;;;;;;;;5012691;28;20030;-79
2022/05/12 03:51:04;;;;;;;9.40;6.80;;;;;;;;;;5012748;28;20058;-79
2022/05/12 03:53:30;;;;;;;12.23;7.95;;;;;;;;;;5012615;28;20034;-80
2022/05/12 03:55:57;;;;;;;15.75;9.07;;;;;;;;;;5012631;28;20052;-80
2022/05/12 03:58:24;;;;;;;11.48;8.07;;;;;;;;;;5013792;28;20492;-79
2022/05/12 04:00:51;;;;;;;10.20;7.90;;;;;;;;;;5012098;28;20022;-80
2022/05/12 04:03:17;;;;;;;12.85;8.70;;;;;;;;;;5012513;28;20025;-82
2022/05/12 04:05:43;;;;;;;12.55;8.13;;;;;;;;;;5012595;28;20501;-83
2022/05/12 04:08:09;;;;;;;11.85;8.23;;;;;;;;;;5014031;28;20037;-83
2022/05/12 04:10:36;;;;;;;13.85;9.43;;;;;;;;;;5012575;28;20476;-81
2022/05/12 04:13:02;;;;;;;12.77;8.35;;;;;;;;;;5013057;28;20477;-83
2022/05/12 04:15:28;;;;;;;23.90;12.82;;;;;;;;;;5011544;28;20022;-84
2022/05/12 04:17:55;;;;;;;14.90;10.27;;;;;;;;;;5012838;28;20030;-80
2022/05/12 04:20:21;;;;;;;22.52;11.88;;;;;;;;;;5011659;28;20018;-82
2022/05/12 04:22:48;;;;;;;12.35;9.75;;;;;;;;;;5006049;28;20046;-82
2022/05/12 04:25:14;;;;;;;11.60;9.52;;;;;;;;;;5012457;28;20028;-82
2022/05/12 04:27:40;;;;;;;16.27;13.25;;;;;;;;;;5005682;28;20124;-81
2022/05/12 04:30:07;;;;;;;18.95;11.30;;;;;;;;;;5005770;28;20113;-83
2022/05/12 04:32:33;;;;;;;15.75;10.93;;;;;;;;;;5013575;28;20025;-82
2022/05/12 04:35:15;;;;;;;14.02;9.18;;;;;;;;;;5013533;28;20018;-83
2022/05/12 04:37:41;;;;;;;16.00;10.23;;;;;;;;;;5013132;28;20397;-81
2022/05/12 04:40:12;;;;;;;14.07;9.02;;;;;;;;;;5012553;28;20026;-81
2022/05/12 04:42:38;;;;;;;22.45;13.85;;;;;;;;;;5010149;28;20481;-80
2022/05/12 04:45:05;;;;;;;11.55;8.43;;;;;;;;;;5011680;28;20018;-80
2022/05/12 04:47:33;;;;;;;11.00;9.00;;;;;;;;;;5011461;28;20552;-80
2022/05/12 04:49:59;;;;;;;11.38;8.43;;;;;;;;;;5011803;28;20026;-79
2022/05/12 04:52:25;;;;;;;15.82;9.52;;;;;;;;;;5011495;28;20014;-78
2022/05/12 04:54:51;;;;;;;12.43;9.32;;;;;;;;;;5011460;28;20029;-78
2022/05/12 04:57:17;;;;;;;12.25;8.63;;;;;;;;;;5011412;28;20033;-78
2022/05/12 04:59:43;;;;;;;11.55;8.20;;;;;;;;;;5011021;28;20116;-79
2022/05/12 05:02:09;;;;;;;13.50;9.40;;;;;;;;;;5009908;28;20424;-79
2022/05/12 05:04:35;;;;;;;13.65;9.35;;;;;;;;;;5011278;28;20393;-80
2022/05/12 05:07:02;;;;;;;14.07;8.68;;;;;;;;;;5010885;28;20529;-79
2022/05/12 05:09:28;;;;;;;11.95;8.80;;;;;;;;;;5011241;28;20018;-80
2022/05/12 05:11:54;;;;;;;13.43;9.25;;;;;;;;;;5011678;28;20078;-77
2022/05/12 05:14:20;;;;;;;14.63;9.35;;;;;;;;;;5012510;28;20033;-78
2022/05/12 05:16:46;;;;;;;13.27;8.90;;;;;;;;;;5010980;28;20978;-78
2022/05/12 05:19:12;;;;;;;20.92;11.25;;;;;;;;;;5012280;28;20488;-78
2022/05/12 05:21:39;;;;;;;16.58;9.80;;;;;;;;;;5010971;28;20057;-79
2022/05/12 05:24:05;;;;;;;18.70;10.35;;;;;;;;;;5009402;28;20029;-79
2022/05/12 05:26:31;;;;;;;13.75;11.48;;;;;;;;;;5010506;28;20424;-78
2022/05/12 05:28:57;;;;;;;11.27;8.50;;;;;;;;;;5010541;28;20049;-79
2022/05/12 05:31:23;;;;;;;24.17;9.90;;;;;;;;;;5002166;28;20097;-79
2022/05/12 05:33:49;;;;;;;14.40;9.13;;;;;;;;;;5010730;28;20058;-79
2022/05/12 05:36:15;;;;;;;21.23;11.65;;;;;;;;;;5012061;28;20022;-78
2022/05/12 05:38:41;;;;;;;14.45;9.50;;;;;;;;;;5010562;28;20437;-79
2022/05/12 05:41:08;;;;;;;22.38;13.15;;;;;;;;;;5005593;28;20042;-82
2022/05/12 05:43:34;;;;;;;16.63;10.43;;;;;;;;;;4991072;28;20026;-81
2022/05/12 05:46:00;;;;;;;15.00;9.80;;;;;;;;;;5005441;28;20034;-81
2022/05/12 05:48:26;;;;;;;17.45;10.57;;;;;;;;;;5012008;28;20034;-80
2022/05/12 05:53:38;;;;;;;15.20;9.95;;;;;;;;;;5015233;28;20080;-78
2022/05/12 05:56:06;;;;;;;19.60;11.65;;;;;;;;;;5016034;28;20026;-79
2022/05/12 05:58:33;;;;;;;17.92;11.40;;;;;;;;;;4996124;28;20113;-82
2022/05/12 06:00:59;;;;;;;17.27;11.27;;;;;;;;;;4996903;28;20022;-78
2022/05/12 06:03:26;;;;;;;13.52;10.60;;;;;;;;;;5001514;28;20026;-80
2022/05/12 06:05:52;;;;;;;16.13;10.43;;;;;;;;;;5017727;28;20052;-80
2022/05/12 06:08:20;;;;;;;18.30;11.90;;;;;;;;;;5017951;28;20034;-79
2022/05/12 06:10:46;;;;;;;21.40;11.48;;;;;;;;;;5016680;28;20018;-80
2022/05/12 06:13:13;;;;;;;21.17;11.18;;;;;;;;;;5016882;28;20022;-80
2022/05/12 06:15:39;;;;;;;19.85;10.88;;;;;;;;;;5017125;28;20026;-80
2022/05/12 06:18:10;;;;;;;19.45;10.98;;;;;;;;;;5018682;28;20473;-80
2022/05/12 06:20:37;;;;;;;19.20;10.50;;;;;;;;;;5017648;28;20033;-80
2022/05/12 06:23:03;;;;;;;29.40;11.18;;;;;;;;;;5017967;28;20026;-81
2022/05/12 06:25:29;;;;;;;15.88;10.25;;;;;;;;;;5013498;28;20027;-80
2022/05/12 06:27:55;;;;;;;21.75;10.70;;;;;;;;;;4996965;28;20395;-80
2022/05/12 06:30:21;;;;;;;18.17;10.77;;;;;;;;;;4998269;28;20033;-79
2022/05/12 06:32:47;;;;;;;15.75;11.77;;;;;;;;;;4997255;28;20026;-79
2022/05/12 06:35:16;;;;;;;23.88;10.93;;;;;;;;;;4997962;28;20470;-79
2022/05/12 06:37:42;;;;;;;20.83;11.95;;;;;;;;;;4997160;28;20065;-79
2022/05/12 06:40:09;;;;;;;26.75;11.98;;;;;;;;;;4997006;28;20077;-79
2022/05/12 06:42:35;;;;;;;20.80;11.35;;;;;;;;;;4996876;28;20478;-81
2022/05/12 06:45:02;;;;;;;24.63;14.40;;;;;;;;;;4996959;28;20041;-79
2022/05/12 06:47:28;;;;;;;18.20;11.38;;;;;;;;;;4996838;28;20079;-78
2022/05/12 06:49:54;;;;;;;19.40;11.10;;;;;;;;;;4997020;28;20094;-79
2022/05/12 06:52:21;;;;;;;17.45;10.45;;;;;;;;;;4998052;28;20397;-80
2022/05/12 06:54:47;;;;;;;17.48;10.50;;;;;;;;;;4996778;28;20026;-80
2022/05/12 06:57:20;;;;;;;22.80;12.45;;;;;;;;;;4998586;28;20019;-80
2022/05/12 06:59:46;;;;;;;22.45;10.30;;;;;;;;;;4998484;28;20485;-81
2022/05/12 07:02:12;;;;;;;18.08;10.35;;;;;;;;;;4997512;28;20429;-79
2022/05/12 07:04:39;;;;;;;16.45;10.25;;;;;;;;;;4994241;28;20470;-80
2022/05/12 07:07:05;;;;;;;20.02;9.65;;;;;;;;;;4995056;28;20046;-79
2022/05/12 07:09:32;;;;;;;16.38;9.85;;;;;;;;;;4995379;28;20073;-80
2022/05/12 07:11:58;;;;;;;14.77;9.85;;;;;;;;;;4993767;28;20026;-79
2022/05/12 07:14:24;;;;;;;18.25;10.93;;;;;;;;;;4993503;28;20055;-79
2022/05/12 07:16:50;;;;;;;15.82;11.35;;;;;;;;;;4993629;28;20117;-80
2022/05/12 07:19:17;;;;;;;14.32;10.02;;;;;;;;;;4993319;28;20030;-79
2022/05/12 07:27:15;;;;;;;11.70;8.57;;;;;;;;;;4994135;28;20045;-79
2022/05/12 07:29:41;;;;;;;16.63;8.68;;;;;;;;;;4994601;28;20029;-80
2022/05/12 07:32:08;;;;;;;13.68;9.32;;;538.40;2278.40;;;;;;4994275;28;20030;-80
2022/05/12 07:34:34;;;;;;;19.63;8.15;;;538.40;2329.60;;;;;;4995005;28;20058;-81
2022/05/12 07:37:00;;;;;;;14.68;8.93;;;538.30;2406.40;;;;;;4997156;28;20076;-79
2022/05/12 07:39:29;;;;;;;12.43;8.80;;;;;;;;;;5012536;28;20026;-80
2022/05/12 07:41:59;;;;;;;13.30;8.30;;;;;;;;;;5012726;28;20018;-79
2022/05/12 07:44:32;;;;;;;14.50;9.07;;;;;;;;;;5014091;28;20381;-80
2022/05/12 07:47:00;;;;;;;16.13;8.70;;;;;;;;;;5012590;28;20876;-79
2022/05/12 07:49:28;;;;;;;9.90;7.88;;;;;;;;;;5013840;28;20029;-79
2022/05/12 07:51:54;;;;;;;14.10;8.82;;;;;;;;;;5012405;28;20061;-80
2022/05/12 07:54:21;;;;;;;13.85;10.68;;;;;;;;;;5013965;28;20026;-79
2022/05/12 07:56:47;;;;;;;9.38;7.53;;;;;;;;;;5014162;28;20034;-79
2022/05/12 07:59:13;;;;;;;13.73;9.82;;;;;;;;;;5013208;28;20032;-79
2022/05/12 08:01:39;;;;;;;19.05;12.13;;;;;;;;;;5013281;28;20101;-81
2022/05/12 08:04:05;;;;;;;11.45;8.15;;;;;;;;;;5011962;28;20022;-80
2022/05/12 08:06:32;;;;;;;11.70;8.65;;;;;;;;;;5011496;28;20137;-79
2022/05/12 08:08:58;;;;;;;12.50;7.28;;;;;;;;;;5011770;28;20028;-79
2022/05/12 08:11:24;;;;;;;11.32;7.72;;;;;;;;;;4997747;28;20014;-80
2022/05/12 08:13:51;;;;;;;13.73;8.07;;;;;;;;;;4997912;28;20014;-80
2022/05/12 08:16:18;;;;;;;12.00;7.57;;;;;;;;;;4995904;28;20053;-80
2022/05/12 08:18:46;;;;;;;10.88;8.15;;;;;;;;;;4996371;28;20027;-79
2022/05/12 08:21:13;;;;;;;14.55;9.40;;;;;;;;;;4993390;28;20126;-79
2022/05/12 08:23:39;;;;;;;10.57;7.60;;;;;;;;;;4992364;28;20482;-79
2022/05/12 08:26:05;;;;;;;14.05;8.90;;;;;;;;;;4993571;28;20434;-80
2022/05/12 08:28:31;;;;;;;10.25;8.43;;;;;;;;;;4992310;28;20070;-80
2022/05/12 08:30:57;;;;;;;11.23;8.73;;;;;;;;;;4992299;28;20018;-79
2022/05/12 08:33:24;;;;;;;13.25;7.45;;;;;;;;;;4998883;28;20026;-79
2022/05/12 08:35:51;;;;;;;15.63;10.98;;;;;;;;;;5013007;28;20026;-79
2022/05/12 08:38:18;;;;;;;12.00;9.02;;;;;;;;;;5012878;28;20018;-79
2022/05/12 08:40:47;;;;;;;11.13;8.63;;;;;;;;;;5011632;28;20097;-80
2022/05/12 08:43:16;;;;;;;11.45;8.02;;;;;;;;;;5013257;28;20034;-79
2022/05/12 08:45:42;;;;;;;10.95;7.43;;;;;;;;;;5012497;28;20022;-79
2022/05/12 08:48:10;;;;;;;12.52;8.32;;;;;;;;;;5011388;28;20077;-79
2022/05/12 08:50:36;;;;;;;11.25;7.40;;;;;;;;;;5012718;28;20021;-79
2022/05/12 08:53:05;;;;;;;13.85;7.00;;;;;;;;;;5012769;28;20108;-80
2022/05/12 08:55:38;;;;;;;11.20;7.75;;;;;;;;;;5012346;28;20381;-80
2022/05/12 08:58:08;;;;;;;12.43;8.00;;;;;;;;;;5011303;28;20495;-79
2022/05/12 09:00:40;;;;;;;14.68;7.70;;;;;;;;;;5012248;28;20504;-80
2022/05/12 09:03:13;;;;;;;15.85;7.25;;;;;;;;;;5012881;28;20030;-79
2022/05/12 09:05:53;;;;;;;18.90;7.28;;;;;;;;;;5012308;28;20050;-79
2022/05/12 09:08:40;;;;;;;12.60;7.95;;;;;;;;;;5012378;28;20052;-78
2022/05/12 09:11:11;;;;;;;13.00;7.57;;;;;;;;;;5011290;28;20033;-80
2022/05/12 09:13:37;;;;;;;11.90;7.28;;;;;;;;;;5011303;28;20049;-80
2022/05/12 09:16:03;;;;;;;20.42;13.23;;;;;;;;;;5011088;28;20452;-78
2022/05/12 09:18:32;;;;;;;12.70;9.00;;;;;;;;;;5010998;28;20083;-80
2022/05/12 09:21:22;;;;;;;16.77;8.02;;;;;;;;;;5010805;28;20030;-79
2022/05/12 09:23:49;;;;;;;12.60;6.55;;;;;;;;;;5009010;28;20049;-79
2022/05/12 09:26:30;;;;;;;9.73;6.18;;;;;;;;;;5011521;28;20496;-80
2022/05/12 09:29:08;;;;;;;11.40;6.07;;;;;;;;;;5011791;28;20034;-80
2022/05/12 09:31:35;;;;;;;9.30;6.63;;;;;;;;;;5005099;28;20014;-80
2022/05/12 09:34:13;;;;;;;9.18;6.75;;;;;;;;;;4999125;28;20026;-79
2022/05/12 09:36:39;;;;;;;11.07;8.05;;;;;;;;;;4993935;28;20017;-79
2022/05/12 09:39:05;;;;;;;12.48;6.43;;;;;;;;;;5012130;28;20026;-80
2022/05/12 09:41:31;;;;;;;16.05;11.93;;;;;;;;;;4996634;28;20019;-79
2022/05/12 09:43:57;;;;;;;21.95;14.82;;;;;;;;;;5011806;28;21543;-81
2022/05/12 09:46:29;;;;;;;17.38;6.65;;;;;;;;;;5005004;28;20022;-79
2022/05/12 09:48:56;;;;;;;11.50;6.70;;;;;;;;;;5010131;28;20481;-81
2022/05/12 09:51:30;;;;;;;14.73;9.70;;;;;;;;;;4999233;28;20026;-81
2022/05/12 09:54:15;;;;;;;12.23;6.80;;;;;;;;;;4992539;28;20023;-80
2022/05/12 09:56:41;;;;;;;6.88;5.00;;;;;;;;;;5010031;28;20022;-80
2022/05/12 09:59:13;;;;;;;20.67;15.30;;;;;;;;;;4996474;28;20030;-80
2022/05/12 10:02:09;;;;;;;11.18;5.97;;;;;;;;;;4993418;28;20058;-79
2022/05/12 10:10:15;;;;;;;9.80;7.55;;;;;;;;;;5008992;28;20127;-81
2022/05/12 10:13:02;;;;;;;19.58;8.52;;;;;;;;;;4993858;28;20025;-81
2022/05/12 10:15:30;;;;;;;18.70;11.45;;;;;;;;;;5025545;28;20018;-81
2022/05/12 10:18:03;;;;;;;9.75;7.10;;;;;;;;;;4999309;28;20022;-82
2022/05/12 10:20:30;;;;;;;12.40;7.17;;;;;;;;;;5010252;28;20085;-81
2022/05/12 10:23:04;;;;;;;11.73;5.85;;;;;;;;;;4996519;28;20256;-80
2022/05/12 10:25:57;;;;;;;15.38;9.27;;;;;;;;;;5010866;28;20046;-80
2022/05/12 10:28:43;;;;;;;8.00;5.60;;;;;;;;;;5007109;28;20062;-80
2022/05/12 10:31:24;;;;;;;10.75;7.57;;;;;;;;;;5008761;28;20116;-80
2022/05/12 10:34:09;;;;;;;11.32;8.02;;;;;;;;;;5011020;28;20026;-80
2022/05/12 10:36:35;;;;;;;9.73;5.95;;;;;;;;;;5008544;28;20482;-80
2022/05/12 10:39:01;;;;;;;10.57;4.72;;;;;;;;;;4995765;28;20466;-81
2022/05/12 10:41:39;;;;;;;14.38;9.38;;;;;;;;;;4997138;28;20022;-80
2022/05/12 10:44:25;;;;;;;8.90;5.55;;;;;;;;;;5011449;28;20026;-82
2022/05/12 10:46:57;;;;;;;9.77;4.65;;;;;;;;;;5015868;28;20140;-82
2022/05/12 10:49:42;;;;;;;10.27;5.65;;;;;;;;;;5014332;28;20045;-80
2022/05/12 10:52:27;;;;;;;13.48;4.60;;;;;;;;;;5013891;28;20072;-79
2022/05/12 10:54:56;;;;;;;12.65;6.15;;;;;;;;;;5014691;28;20109;-80
2022/05/12 10:57:22;;;;;;;6.05;4.70;;;;;;;;;;5012862;28;20489;-79
2022/05/12 10:59:54;;;;;;;12.68;8.45;;;;;;;;;;5014170;28;20121;-79
2022/05/12 11:02:31;;;;;;;10.73;7.90;;;;;;;;;;5013503;28;20026;-81
2022/05/12 11:05:15;;;;;;;21.58;13.93;;;;;;;;;;4993939;28;20034;-80
2022/05/12 11:08:20;;;;;;;9.50;5.07;;;;;;;;;;4993667;28;20080;-81
2022/05/12 11:10:51;;;;;;;7.00;4.75;;;;;;;;;;4934481;29;20063;-77
2022/05/12 11:13:20;;;;;;;9.68;5.60;;;;;;;;;;4918609;29;20046;-78
2022/05/12 11:15:56;;;;;;;10.02;5.30;;;;;;;;;;4956244;28;20153;-79
2022/05/12 11:18:27;;;;;;;7.82;4.85;;;;;;;;;;4997319;28;20045;-78
2022/05/12 11:20:59;;;;;;;9.65;6.70;;;;;;;;;;5017547;28;20022;-79
2022/05/12 11:23:35;;;;;;;18.35;15.23;;;;;;;;;;5013068;28;20057;-77
2022/05/12 11:26:03;;;;;;;15.20;13.07;;;;;;;;;;5012974;28;20030;-78
2022/05/12 11:31:18;;;;;;;18.85;15.25;;;;;;;;;;5014070;28;20096;-77
2022/05/12 11:33:51;;;;;;;7.20;5.75;;;;;;;;;;5012734;28;20026;-77
2022/05/12 11:36:17;;;;;;;14.52;6.72;;;;;;;;;;5012748;28;20426;-79
2022/05/12 11:38:47;;;;;;;11.55;7.57;;;;;;;;;;5013733;28;20493;-79
2022/05/12 11:41:30;;;;;;;8.55;5.00;;;;;;;;;;5014154;28;20068;-80
2022/05/12 11:44:26;;;;;;;6.65;5.13;;;;;;;;;;5012709;28;20032;-79
2022/05/12 11:47:04;;;;;;;16.23;14.32;;;;;;;;;;5011004;28;20053;-80
2022/05/12 11:49:34;;;;;;;6.35;5.30;;;;;;;;;;4992338;28;20077;-79
2022/05/12 11:52:19;;;;;;;10.40;7.30;;;;;;;;;;4994206;28;20026;-79
2022/05/12 11:55:06;;;;;;;7.90;5.25;;;;;;;;;;4993060;28;20386;-79
2022/05/12 11:57:43;;;;;;;7.50;6.40;;;;;;;;;;4992742;28;20026;-82
2022/05/12 12:00:33;;;;;;;9.30;5.90;;;;;;;;;;4993442;28;20026;-80
2022/05/12 12:02:59;;;;;;;9.02;5.55;;;;;;;;;;4994421;28;20044;-79
2022/05/12 12:05:29;;;;;;;5.47;4.15;;;;;;;;;;5011916;28;20018;-78
2022/05/12 12:07:55;;;;;;;12.40;5.53;;;;;;;;;;5012072;28;20133;-78
2022/05/12 12:10:24;;;;;;;8.77;5.20;;;;;;;;;;5013409;28;20064;-78
2022/05/12 12:13:02;;;;;;;6.75;5.80;;;;;;;;;;5012166;28;20390;-79
2022/05/12 12:15:34;;;;;;;7.38;5.20;;;;;;;;;;5013034;28;20029;-78
2022/05/12 12:18:14;;;;;;;12.18;9.52;;;;;;;;;;5012039;28;20030;-78
2022/05/12 12:20:40;;;;;;;7.65;4.90;;;;;;;;;;5012090;28;20025;-79
2022/05/12 12:23:25;;;;;;;11.23;5.25;;;;;;;;;;5012041;28;20126;-79
2022/05/12 12:26:09;;;;;;;6.95;4.80;;;;;;;;;;5013162;28;20028;-79
2022/05/12 12:28:54;;;;;;;12.00;6.72;;;;;;;;;;5011868;28;20030;-80
2022/05/12 12:31:31;;;;;;;7.00;3.95;;;;;;;;;;5013551;28;20029;-79
2022/05/12 12:34:17;;;;;;;6.97;5.43;;;;;;;;;;5011778;28;20120;-79
2022/05/12 12:36:53;;;;;;;9.30;6.60;;;;;;;;;;5011881;28;20053;-79
2022/05/12 12:39:35;;;;;;;9.02;3.85;;;;;;;;;;5011639;28;20029;-79
2022/05/12 12:42:14;;;;;;;6.10;4.82;;;;;;;;;;5012085;28;20072;-81
2022/05/12 12:44:46;;;;;;;11.70;8.70;;;;;;;;;;5011836;28;20033;-80
2022/05/12 12:47:35;;;;;;;7.80;5.30;;;;;;;;;;5011834;28;20388;-83
2022/05/12 12:50:09;;;;;;;6.00;3.90;;;845.00;1228.80;;;;;;5012812;28;20076;-81
2022/05/12 12:52:44;;;;;;;6.10;3.90;;;794.30;1203.20;;;;;;5012601;28;20061;-81
2022/05/12 12:58:28;;;;;;;6.32;3.38;;;;;;;;;;5012719;28;20037;-80
2022/05/12 13:01:02;;;;;;;5.68;4.15;;;;;;;;;;5012072;28;20033;-79
2022/05/12 13:03:32;;;;;;;9.55;3.80;;;;;;;;;;5012326;28;20076;-79
2022/05/12 13:06:09;;;;;;;5.57;4.60;;;;;;;;;;5011024;28;20140;-79
2022/05/12 13:08:36;;;;;;;6.60;5.00;;;;;;;;;;5012457;28;20096;-79
2022/05/12 13:11:03;;;;;;;6.25;4.22;;;;;;;;;;5012122;28;20070;-79
2022/05/12 13:13:29;;;;;;;10.70;7.32;;;;;;;;;;5012329;28;20029;-80
2022/05/12 13:15:59;;;;;;;12.35;9.02;;;;;;;;;;5012537;28;20029;-80
2022/05/12 13:18:30;;;;;;;8.63;4.97;;;;;;;;;;5011082;28;20105;-80
2022/05/12 13:20:57;;;;;;;20.85;11.15;;;;;;;;;;5010992;28;20109;-79
2022/05/12 13:23:27;;;;;;;8.68;6.63;;;;;;;;;;5011875;28;20022;-84
2022/05/12 13:25:54;;;;;;;10.27;6.47;;;;;;;;;;5010721;28;20024;-81
2022/05/12 13:28:24;;;;;;;7.50;6.68;;;;;;;;;;5011030;28;20518;-77
2022/05/12 13:30:53;;;;;;;11.65;10.45;;;;;;;;;;5010892;28;20080;-79
2022/05/12 13:33:19;;;;;;;14.63;13.18;;;;;;;;;;5012127;28;20022;-84
2022/05/12 13:35:59;;;;;;;8.60;4.55;;;;;;;;;;5001799;28;20022;-82
2022/05/12 13:38:27;;;;;;;6.40;4.93;;;;;;;;;;4991431;28;20026;-79
2022/05/12 13:40:54;;;;;;;7.88;4.32;;;;;;;;;;4992842;28;20023;-83
2022/05/12 13:43:22;;;;;;;5.82;5.00;;;;;;;;;;4992898;28;20050;-86
2022/05/12 13:45:59;;;;;;;10.95;7.22;;;;;;;;;;4991775;28;20022;-85
2022/05/12 13:48:27;;;;;;;5.93;4.65;;;;;;;;;;4993143;28;20036;-82
2022/05/12 13:50:55;;;;;;;8.15;5.47;;;;;;;;;;5008642;28;20032;-82
2022/05/12 13:53:29;;;;;;;5.25;4.30;;;;;;;;;;5006987;28;20022;-83
2022/05/12 13:56:05;;;;;;;8.27;4.55;;;;;;;;;;5010442;28;20045;-86
2022/05/12 13:58:31;;;;;;;6.50;4.28;;;;;;;;;;5011302;28;20025;-81
2022/05/12 14:00:58;;;;;;;5.15;4.53;;;;;;;;;;5012503;28;20022;-83
2022/05/12 14:03:23;;;;;;;7.85;4.35;;;845.40;1126.40;;;;;;5011872;28;20029;-80
2022/05/12 14:05:53;;;;;;;7.32;6.55;;;;;;;;;;5010558;28;20046;-80
2022/05/12 14:08:22;;;;;;;5.85;3.55;;;;;;;;;;5010872;28;20539;-87
2022/05/12 14:10:48;;;;;;;7.97;6.70;;;;;;;;;;5011254;28;20137;-81
2022/05/12 14:21:33;;;;;;;5.30;4.80;;;871.30;1049.60;;;;;;5003479;28;20037;-79
2022/05/12 14:23:59;;;;;;;4.85;4.35;;;;;;;;;;5013539;28;20080;-80
2022/05/12 14:26:25;;;;;;;5.10;3.55;;;870.70;1100.80;;;;;;5031085;28;20024;-81
2022/05/12 14:28:52;;;;;;;8.20;7.15;;;;;;;;;;5027304;28;20033;-81
2022/05/12 14:31:20;;;;;;;4.28;3.63;;;;;;;;;;5015888;28;20040;-81
2022/05/12 14:33:46;;;;;;;7.85;5.82;;;;;;;;;;5015110;28;20026;-82
2022/05/12 14:36:12;;;;;;;34.00;30.60;;;;;;;;;;5016001;28;20033;-86
2022/05/12 14:38:38;;;;;;;4.82;3.92;;;;;;;;;;5015036;28;20084;-82
2022/05/12 14:41:05;;;;;;;11.05;8.07;;;;;;;;;;5015220;28;20041;-85
2022/05/12 14:43:31;;;;;;;6.78;5.68;;;;;;;;;;5014584;28;20022;-80
2022/05/12 14:45:57;;;;;;;11.57;8.57;;;;;;;;;;5015449;28;20018;-84
2022/05/12 14:48:24;;;;;;;7.03;4.15;;;;;;;;;;5016233;28;20030;-82
2022/05/12 14:50:50;;;;;;;9.20;4.45;;;;;;;;;;5021814;28;20044;-87
2022/05/12 14:53:16;;;;;;;21.77;17.85;;;921.60;1024.00;;;;;;5015393;28;20026;-86
2022/05/12 14:55:43;;;;;;;8.73;5.65;;;;;;;;;;5015934;28;20028;-85
2022/05/12 14:58:10;;;;;;;5.10;4.00;;;;;;;;;;5016809;28;20133;-85
2022/05/12 15:00:37;;;;;;;6.07;4.03;;;;;;;;;;5016133;28;20022;-86
2022/05/12 15:03:03;;;;;;;5.40;3.80;;;;;;;;;;5015643;28;20113;-84
2022/05/12 15:05:29;;;;;;;7.40;4.47;;;;;;;;;;5016072;28;20050;-88
2022/05/12 15:07:56;;;;;;;10.35;8.45;;;;;;;;;;5018455;28;20154;-87